Time;durP1;ratioP1;P1;durP2;ratioP2;P2;SDS_P1;SDS_P2;PMS_P1;PMS_P2;Temp;Humidity;BMP_temperature;BMP_pressure;BME280_temperature;BME280_humidity;BME280_pressure;Samples;Min_cycle;Max_cycle;Signal;HPM_P1;HPM_P2
2023/03/31 00:03:20;;;;;;;;;;;;;;;9.27;91.4502;100315.5;;;;-75
2023/03/31 00:08:14;;;;;;;;;;;;;;;9.29;92.0127;100304.7;;;;-73
2023/03/31 00:13:17;;;;;;;;;;;;;;;9.35;93.10156;100292.5;;;;-75
2023/03/31 00:18:02;;;;;;;14.8;2.3;;;;;;;;;;;;;-74
2023/03/31 00:18:14;;;;;;;;;;;;;;;9.37;93.05078;100281;;;;-74
2023/03/31 00:23:14;;;;;;;;;;;;;;;9.37;93.06543;100278.2;;;;-73
2023/03/31 00:28:14;;;;;;;;;;;;;;;9.41;93.68652;100267.6;;;;-74
2023/03/31 00:33:14;;;;;;;;;;;;;;;9.44;92.96777;100262.4;;;;-73
2023/03/31 00:38:16;;;;;;;;;;;;;;;9.44;93.29883;100245.1;;;;-74
2023/03/31 00:43:25;;;;;;;;;;;;;;;9.46;93.56641;100235.5;;;;-72
2023/03/31 00:48:10;;;;;;;16.6;2.5;;;;;;;;;;;;;-74
2023/03/31 00:48:23;;;;;;;;;;;;;;;9.46;93.85254;100221.2;;;;-74
2023/03/31 00:53:16;;;;;;;;;;;;;;;9.48;93.51758;100209.4;;;;-74
2023/03/31 00:58:19;;;;;;;;;;;;;;;9.49;93.60547;100197.4;;;;-73
2023/03/31 01:03:15;;;;;;;;;;;;;;;9.48;93.41895;100192.8;;;;-74
2023/03/31 01:08:15;;;;;;;;;;;;;;;9.49;92.91504;100183.7;;;;-73
2023/03/31 01:13:16;;;;;;;;;;;;;;;9.52;93.22656;100169.3;;;;-73
2023/03/31 01:18:08;;;;;;;13.4;2;;;;;;;;;;;;;-73
2023/03/31 01:18:20;;;;;;;;;;;;;;;9.53;93.01953;100166.5;;;;-74
2023/03/31 01:23:28;;;;;;;;;;;;;;;9.55;92.74121;100165.2;;;;-75
2023/03/31 01:28:19;;;;;;;;;;;;;;;9.55;92.76172;100146.3;;;;-74
2023/03/31 01:33:26;;;;;;;;;;;;;;;9.56;92.88477;100142.8;;;;-74
2023/03/31 01:38:30;;;;;;;;;;;;;;;9.56;94.16016;100137.8;;;;-74
2023/03/31 01:43:20;;;;;;;;;;;;;;;9.53;95.73633;100118.7;;;;-74
2023/03/31 01:48:09;;;;;;;11.7;2.1;;;;;;;;;;;;;-74
2023/03/31 01:48:22;;;;;;;;;;;;;;;9.52;95.74316;100108.3;;;;-73
2023/03/31 01:53:18;;;;;;;;;;;;;;;9.52;95.50195;100100.7;;;;-74
2023/03/31 01:58:16;;;;;;;;;;;;;;;9.52;94.23828;100085.9;;;;-74
2023/03/31 02:03:18;;;;;;;;;;;;;;;9.53;95.27539;100073.3;;;;-74
2023/03/31 02:08:19;;;;;;;;;;;;;;;9.5;94.51074;100055.5;;;;-74
2023/03/31 02:13:17;;;;;;;;;;;;;;;9.49;94.84766;100042;;;;-74
2023/03/31 02:18:12;;;;;;;8.5;2.3;;;;;;;;;;;;;-75
2023/03/31 02:18:26;;;;;;;;;;;;;;;9.48;94.08887;100025;;;;-74
2023/03/31 02:23:16;;;;;;;;;;;;;;;9.51;95.30176;100017.2;;;;-74
2023/03/31 02:28:18;;;;;;;;;;;;;;;9.47;94.7334;100000.5;;;;-74
2023/03/31 02:33:15;;;;;;;;;;;;;;;9.48;95.60352;99992.38;;;;-74
2023/03/31 02:43:37;;;;;;;;;;;;;;;9.49;95.92383;99960.8;;;;-75
2023/03/31 02:48:07;;;;;;;9.5;2.6;;;;;;;;;;;;;-73
2023/03/31 02:48:39;;;;;;;;;;;;;;;9.51;96.29102;99953.33;;;;-74
2023/03/31 02:53:42;;;;;;;;;;;;;;;9.55;97.54004;99948.66;;;;-75
2023/03/31 02:58:45;;;;;;;;;;;;;;;9.56;97.93945;99930.95;;;;-73
2023/03/31 03:03:41;;;;;;;;;;;;;;;9.57;98.24902;99920.53;;;;-74
2023/03/31 03:08:43;;;;;;;;;;;;;;;9.58;98.4834;99906.18;;;;-74
2023/03/31 03:13:39;;;;;;;;;;;;;;;9.58;98.59277;99895.38;;;;-74
2023/03/31 03:18:08;;;;;;;8;2.6;;;;;;;;;;;;;-74
2023/03/31 03:18:37;;;;;;;;;;;;;;;9.57;97.86621;99874.33;;;;-75
2023/03/31 03:23:37;;;;;;;;;;;;;;;9.56;97.92871;99855.28;;;;-74
2023/03/31 03:28:36;;;;;;;;;;;;;;;9.58;98.53613;99842.13;;;;-74
2023/03/31 03:33:37;;;;;;;;;;;;;;;9.57;98.52148;99828.2;;;;-74
2023/03/31 03:38:36;;;;;;;;;;;;;;;9.55;98.17871;99819.42;;;;-75
2023/03/31 03:43:36;;;;;;;;;;;;;;;9.59;99.69141;99805.4;;;;-74
2023/03/31 03:48:09;;;;;;;7;2.3;;;;;;;;;;;;;-74
2023/03/31 03:48:36;;;;;;;;;;;;;;;9.61;100;99796.95;;;;-75
2023/03/31 03:53:36;;;;;;;;;;;;;;;9.6;100;99781.53;;;;-75
2023/03/31 03:58:37;;;;;;;;;;;;;;;9.58;99.5459;99774.91;;;;-75
2023/03/31 04:03:36;;;;;;;;;;;;;;;9.58;100;99761.25;;;;-74
2023/03/31 04:08:36;;;;;;;;;;;;;;;9.57;100;99750.92;;;;-74
2023/03/31 04:13:36;;;;;;;;;;;;;;;9.56;99.21289;99738.34;;;;-74
2023/03/31 04:18:21;;;;;;;7.9;2.2;;;;;;;;;;;;;-74
2023/03/31 04:18:41;;;;;;;;;;;;;;;9.55;100;99721.31;;;;-73
2023/03/31 04:23:37;;;;;;;;;;;;;;;9.54;100;99711.48;;;;-74
2023/03/31 04:28:36;;;;;;;;;;;;;;;9.55;100;99703.5;;;;-74
2023/03/31 04:33:37;;;;;;;;;;;;;;;9.54;100;99691.28;;;;-75
2023/03/31 04:38:36;;;;;;;;;;;;;;;9.52;100;99677.92;;;;-76
2023/03/31 04:43:36;;;;;;;;;;;;;;;9.52;99.61035;99660.95;;;;-76
2023/03/31 04:48:11;;;;;;;4.6;1.7;;;;;;;;;;;;;-75
2023/03/31 04:48:36;;;;;;;;;;;;;;;9.49;99.71191;99640.77;;;;-75
2023/03/31 04:53:38;;;;;;;;;;;;;;;9.5;98.12207;99625.89;;;;-75
2023/03/31 04:58:37;;;;;;;;;;;;;;;9.48;98.02148;99611.35;;;;-74
2023/03/31 05:03:40;;;;;;;;;;;;;;;9.48;99.66602;99599.63;;;;-75
2023/03/31 05:08:37;;;;;;;;;;;;;;;9.45;99.30664;99588.87;;;;-74
2023/03/31 05:13:36;;;;;;;;;;;;;;;9.42;98.33691;99584.81;;;;-74
2023/03/31 05:18:12;;;;;;;6.6;1.7;;;;;;;;;;;;;-74
2023/03/31 05:18:36;;;;;;;;;;;;;;;9.43;99.03027;99571.53;;;;-73
2023/03/31 05:23:40;;;;;;;;;;;;;;;9.44;99.81152;99564.39;;;;-74
2023/03/31 05:28:37;;;;;;;;;;;;;;;9.44;99.78711;99555.11;;;;-73
2023/03/31 05:33:39;;;;;;;;;;;;;;;9.44;100;99550.08;;;;-74
2023/03/31 05:38:37;;;;;;;;;;;;;;;9.45;100;99545.41;;;;-74
2023/03/31 05:43:36;;;;;;;;;;;;;;;9.45;100;99533.95;;;;-74
2023/03/31 05:48:13;;;;;;;7.1;2.2;;;;;;;;;;;;;-74
2023/03/31 05:48:37;;;;;;;;;;;;;;;9.48;100;99532.09;;;;-74
2023/03/31 05:53:36;;;;;;;;;;;;;;;9.49;100;99521.92;;;;-74
2023/03/31 05:58:37;;;;;;;;;;;;;;;9.52;100;99512.27;;;;-74
2023/03/31 06:03:37;;;;;;;;;;;;;;;9.5;100;99512.63;;;;-75
2023/03/31 06:08:37;;;;;;;;;;;;;;;9.53;100;99511.19;;;;-75
2023/03/31 06:13:37;;;;;;;;;;;;;;;9.54;100;99506.34;;;;-74
2023/03/31 06:18:13;;;;;;;6;2;;;;;;;;;;;;;-74
2023/03/31 06:18:38;;;;;;;;;;;;;;;9.54;100;99501.89;;;;-74
2023/03/31 06:23:37;;;;;;;;;;;;;;;9.58;100;99501.16;;;;-74
2023/03/31 06:28:36;;;;;;;;;;;;;;;9.58;100;99496.88;;;;-74
2023/03/31 06:33:37;;;;;;;;;;;;;;;9.57;100;99492.73;;;;-75
2023/03/31 06:38:37;;;;;;;;;;;;;;;9.6;100;99488.19;;;;-74
2023/03/31 06:43:36;;;;;;;;;;;;;;;9.61;100;99480.92;;;;-76
2023/03/31 06:48:15;;;;;;;5.9;1.9;;;;;;;;;;;;;-74
2023/03/31 06:48:36;;;;;;;;;;;;;;;9.61;100;99469.98;;;;-74
2023/03/31 06:53:36;;;;;;;;;;;;;;;9.63;100;99464.08;;;;-74
2023/03/31 06:58:36;;;;;;;;;;;;;;;9.64;100;99466.76;;;;-73
2023/03/31 07:03:37;;;;;;;;;;;;;;;9.69;100;99455.78;;;;-75
2023/03/31 07:08:36;;;;;;;;;;;;;;;9.72;100;99454.91;;;;-74
2023/03/31 07:13:36;;;;;;;;;;;;;;;9.72;100;99454.2;;;;-75
2023/03/31 07:18:16;;;;;;;4.6;1.9;;;;;;;;;;;;;-75
2023/03/31 07:18:40;;;;;;;;;;;;;;;9.72;100;99451.94;;;;-75
2023/03/31 07:23:38;;;;;;;;;;;;;;;9.73;100;99446.39;;;;-74
2023/03/31 07:28:36;;;;;;;;;;;;;;;9.76;100;99446.1;;;;-75
2023/03/31 07:33:37;;;;;;;;;;;;;;;9.76;100;99440.79;;;;-75
2023/03/31 07:38:37;;;;;;;;;;;;;;;9.79;100;99430.45;;;;-74
2023/03/31 07:43:39;;;;;;;;;;;;;;;9.8;100;99430.9;;;;-77
2023/03/31 07:48:18;;;;;;;5.3;1.6;;;;;;;;;;;;;-76
2023/03/31 07:48:39;;;;;;;;;;;;;;;9.83;100;99426.56;;;;-76
2023/03/31 07:53:39;;;;;;;;;;;;;;;9.87;100;99423.66;;;;-74
2023/03/31 07:58:36;;;;;;;;;;;;;;;9.93;100;99417.09;;;;-75
2023/03/31 08:03:37;;;;;;;;;;;;;;;9.97;100;99419.13;;;;-74
2023/03/31 08:08:37;;;;;;;;;;;;;;;9.99;100;99409.45;;;;-75
2023/03/31 08:13:37;;;;;;;;;;;;;;;10.01;100;99405.48;;;;-76
2023/03/31 08:18:18;;;;;;;5;1.8;;;;;;;;;;;;;-74
2023/03/31 08:18:36;;;;;;;;;;;;;;;10.08;100;99396.42;;;;-75
2023/03/31 08:23:36;;;;;;;;;;;;;;;10.15;100;99387.13;;;;-74
2023/03/31 08:28:37;;;;;;;;;;;;;;;10.27;100;99389;;;;-75
2023/03/31 08:33:37;;;;;;;;;;;;;;;10.36;100;99383.24;;;;-74
2023/03/31 08:38:37;;;;;;;;;;;;;;;10.47;100;99385.08;;;;-76
2023/03/31 08:43:40;;;;;;;;;;;;;;;10.6;100;99374.67;;;;-74
2023/03/31 08:48:24;;;;;;;6;2.3;;;;;;;;;;;;;-75
2023/03/31 08:48:44;;;;;;;;;;;;;;;10.74;100;99364.27;;;;-74
2023/03/31 08:53:40;;;;;;;;;;;;;;;10.87;100;99360.37;;;;-73
2023/03/31 08:58:54;;;;;;;;;;;;;;;10.99;100;99355.08;;;;-74
2023/03/31 09:03:41;;;;;;;;;;;;;;;11.12;100;99349.58;;;;-74
2023/03/31 09:08:40;;;;;;;;;;;;;;;11.23;100;99350.92;;;;-74
2023/03/31 09:13:51;;;;;;;;;;;;;;;11.36;100;99343.27;;;;-74
2023/03/31 09:18:24;;;;;;;9.4;2.5;;;;;;;;;;;;;-74
2023/03/31 09:18:45;;;;;;;;;;;;;;;11.59;100;99337.22;;;;-75
2023/03/31 09:23:39;;;;;;;;;;;;;;;11.71;100;99330.63;;;;-75
2023/03/31 09:28:38;;;;;;;;;;;;;;;11.69;100;99322.75;;;;-74
2023/03/31 09:33:36;;;;;;;;;;;;;;;11.68;100;99319.59;;;;-74
2023/03/31 09:38:41;;;;;;;;;;;;;;;11.66;100;99314.89;;;;-75
2023/03/31 09:43:37;;;;;;;;;;;;;;;11.59;100;99310.69;;;;-75
2023/03/31 09:48:23;;;;;;;7.5;2.4;;;;;;;;;;;;;-74
2023/03/31 09:48:41;;;;;;;;;;;;;;;11.56;100;99301.67;;;;-75
2023/03/31 09:53:42;;;;;;;;;;;;;;;11.56;100;99299.05;;;;-74
2023/03/31 09:58:43;;;;;;;;;;;;;;;11.56;100;99290.45;;;;-74
2023/03/31 10:03:38;;;;;;;;;;;;;;;11.62;100;99287.48;;;;-74
2023/03/31 10:08:41;;;;;;;;;;;;;;;11.63;100;99284.13;;;;-75
2023/03/31 10:13:38;;;;;;;;;;;;;;;11.62;100;99287.7;;;;-74
2023/03/31 10:18:23;;;;;;;9.3;2.4;;;;;;;;;;;;;-75
2023/03/31 10:18:40;;;;;;;;;;;;;;;11.57;100;99288.54;;;;-75
2023/03/31 10:23:37;;;;;;;;;;;;;;;11.46;100;99287.34;;;;-75
2023/03/31 10:28:39;;;;;;;;;;;;;;;11.44;100;99288.55;;;;-74
2023/03/31 10:33:40;;;;;;;;;;;;;;;11.47;100;99284.13;;;;-74
2023/03/31 10:38:41;;;;;;;;;;;;;;;11.51;100;99283.73;;;;-75
2023/03/31 10:43:40;;;;;;;;;;;;;;;11.53;100;99265.55;;;;-75
2023/03/31 10:48:27;;;;;;;10.9;2.3;;;;;;;;;;;;;-75
2023/03/31 10:48:37;;;;;;;;;;;;;;;11.54;100;99262.86;;;;-75
2023/03/31 10:53:42;;;;;;;;;;;;;;;11.53;100;99268.11;;;;-75
2023/03/31 10:58:49;;;;;;;;;;;;;;;11.48;100;99259.08;;;;-74
2023/03/31 11:03:52;;;;;;;;;;;;;;;11.47;100;99253.31;;;;-74
2023/03/31 11:08:47;;;;;;;;;;;;;;;11.5;100;99250.09;;;;-76
2023/03/31 11:13:40;;;;;;;;;;;;;;;11.54;100;99254.67;;;;-75
2023/03/31 11:18:35;;;;;;;11.3;2.3;;;;;;;;;;;;;-75
2023/03/31 11:18:50;;;;;;;;;;;;;;;11.55;100;99256.08;;;;-73
2023/03/31 11:23:41;;;;;;;;;;;;;;;11.56;100;99254.66;;;;-74
2023/03/31 11:33:47;;;;;;;;;;;;;;;11.56;100;99246.33;;;;-75
2023/03/31 11:38:47;;;;;;;;;;;;;;;11.65;100;99245.73;;;;-73
2023/03/31 11:43:39;;;;;;;;;;;;;;;11.73;100;99239.05;;;;-73
2023/03/31 11:48:33;;;;;;;6.5;1.8;;;;;;;;;;;;;-74
2023/03/31 11:48:46;;;;;;;;;;;;;;;11.78;100;99228.32;;;;-73
2023/03/31 11:53:40;;;;;;;;;;;;;;;11.86;100;99231.48;;;;-73
2023/03/31 11:58:39;;;;;;;;;;;;;;;11.94;100;99223.95;;;;-73
2023/03/31 12:03:41;;;;;;;;;;;;;;;12.05;100;99216.88;;;;-73
2023/03/31 12:08:40;;;;;;;;;;;;;;;12.13;99.69531;99208.94;;;;-73
2023/03/31 12:13:42;;;;;;;;;;;;;;;12.2;99.9541;99202;;;;-72
2023/03/31 12:18:32;;;;;;;5.6;1.3;;;;;;;;;;;;;-74
2023/03/31 12:18:47;;;;;;;;;;;;;;;12.19;99.46875;99204.17;;;;-72
2023/03/31 12:23:38;;;;;;;;;;;;;;;12.19;99.3252;99196.39;;;;-72
2023/03/31 12:28:37;;;;;;;;;;;;;;;12.23;99.09961;99194.5;;;;-74
2023/03/31 12:33:40;;;;;;;;;;;;;;;12.21;98.80762;99186.3;;;;-73
2023/03/31 12:38:44;;;;;;;;;;;;;;;12.06;98.8418;99205.7;;;;-73
2023/03/31 12:43:52;;;;;;;;;;;;;;;11.93;99.08691;99197.17;;;;-75
2023/03/31 12:48:44;;;;;;;5.3;1.3;;;;;;;;;;;;;-74
2023/03/31 12:49:04;;;;;;;;;;;;;;;11.9;99.52246;99191.39;;;;-74
2023/03/31 12:53:41;;;;;;;;;;;;;;;11.91;100;99184.87;;;;-74
2023/03/31 12:58:52;;;;;;;;;;;;;;;11.91;99.68945;99178.67;;;;-74
2023/03/31 13:03:54;;;;;;;;;;;;;;;11.98;99.73926;99170.66;;;;-74
2023/03/31 13:09:03;;;;;;;;;;;;;;;11.91;99.68945;99160.74;;;;-75
2023/03/31 13:13:36;;;;;;;;;;;;;;;11.87;99.66992;99160.75;;;;-74
2023/03/31 13:18:42;;;;;;;2.8;1.1;;;;;;;;;;;;;-76
2023/03/31 13:18:53;;;;;;;;;;;;;;;11.79;99.90527;99152.95;;;;-76
2023/03/31 13:23:38;;;;;;;;;;;;;;;11.77;99.78027;99155.09;;;;-76
2023/03/31 13:28:49;;;;;;;;;;;;;;;11.75;99.56641;99142.11;;;;-74
2023/03/31 13:33:42;;;;;;;;;;;;;;;11.73;100;99142.91;;;;-76
2023/03/31 13:38:44;;;;;;;;;;;;;;;11.75;100;99134.06;;;;-74
2023/03/31 13:43:58;;;;;;;;;;;;;;;11.77;100;99128.55;;;;-72
2023/03/31 13:48:41;;;;;;;7;1.5;;;;;;;;;;;;;-74
2023/03/31 13:48:53;;;;;;;;;;;;;;;11.74;100;99134.25;;;;-71
2023/03/31 13:53:43;;;;;;;;;;;;;;;11.65;100;99131.59;;;;-75
2023/03/31 13:58:50;;;;;;;;;;;;;;;11.67;100;99130.33;;;;-75
2023/03/31 14:07:24;;;;;;;;;;;;;;;11.57;100;99123.79;;;;-79
2023/03/31 14:17:09;;;;;;;;;;;;;;;11.62;100;99114.81;;;;-74
2023/03/31 14:18:39;;;;;;;4.9;2;;;;;;;;;;;;;-74
2023/03/31 14:22:15;;;;;;;;;;;;;;;11.8;100;99102.02;;;;-74
2023/03/31 14:27:17;;;;;;;;;;;;;;;11.98;100;99098.55;;;;-74
2023/03/31 14:32:17;;;;;;;;;;;;;;;12.08;100;99090.08;;;;-76
2023/03/31 14:37:23;;;;;;;;;;;;;;;12.1;100;99099.63;;;;-75
2023/03/31 14:42:16;;;;;;;;;;;;;;;12.07;100;99090.59;;;;-74
2023/03/31 14:47:16;;;;;;;;;;;;;;;12.09;100;99094.74;;;;-74
2023/03/31 14:48:42;;;;;;;4.6;2;;;;;;;;;;;;;-76
2023/03/31 14:52:15;;;;;;;;;;;;;;;12.07;100;99084.91;;;;-74
2023/03/31 14:57:08;;;;;;;;;;;;;;;12.14;100;99088.11;;;;-74
2023/03/31 15:02:10;;;;;;;;;;;;;;;12.23;100;99087.39;;;;-75
2023/03/31 15:07:09;;;;;;;;;;;;;;;12.19;100;99090.02;;;;-75
2023/03/31 15:12:15;;;;;;;;;;;;;;;12.14;99.74121;99084.42;;;;-76
2023/03/31 15:17:08;;;;;;;;;;;;;;;12.07;99.66895;99080.91;;;;-75
2023/03/31 15:18:43;;;;;;;5.3;1.7;;;;;;;;;;;;;-75
2023/03/31 15:22:13;;;;;;;;;;;;;;;12.02;100;99079.18;;;;-75
2023/03/31 15:27:11;;;;;;;;;;;;;;;11.94;100;99081.56;;;;-74
2023/03/31 15:32:15;;;;;;;;;;;;;;;11.8;100;99072.93;;;;-75
2023/03/31 15:37:10;;;;;;;;;;;;;;;11.75;100;99069.19;;;;-76
2023/03/31 15:42:10;;;;;;;;;;;;;;;11.72;100;99065.39;;;;-73
2023/03/31 15:47:11;;;;;;;;;;;;;;;11.63;100;99064.05;;;;-75
2023/03/31 15:48:52;;;;;;;2.3;1.1;;;;;;;;;;;;;-75
2023/03/31 15:52:18;;;;;;;;;;;;;;;11.57;100;99058;;;;-75
2023/03/31 15:57:11;;;;;;;;;;;;;;;11.55;100;99056.53;;;;-74
2023/03/31 16:02:14;;;;;;;;;;;;;;;11.5;100;99052.7;;;;-74
2023/03/31 16:07:10;;;;;;;;;;;;;;;11.48;100;99051.7;;;;-72
2023/03/31 16:12:16;;;;;;;;;;;;;;;11.4;100;99050.14;;;;-74
2023/03/31 16:17:11;;;;;;;;;;;;;;;11.33;100;99045.41;;;;-74
2023/03/31 16:18:45;;;;;;;4.8;1.3;;;;;;;;;;;;;-74
2023/03/31 16:22:09;;;;;;;;;;;;;;;11.25;100;99042.81;;;;-74
2023/03/31 16:27:09;;;;;;;;;;;;;;;11.18;100;99041.94;;;;-73
2023/03/31 16:32:16;;;;;;;;;;;;;;;11.18;100;99036.53;;;;-73
2023/03/31 16:37:10;;;;;;;;;;;;;;;11.13;100;99029.56;;;;-73
2023/03/31 16:42:09;;;;;;;;;;;;;;;11.14;100;99025.09;;;;-74
2023/03/31 16:47:09;;;;;;;;;;;;;;;11.05;100;99019.52;;;;-74
2023/03/31 16:48:44;;;;;;;3.9;1.4;;;;;;;;;;;;;-73
2023/03/31 16:52:08;;;;;;;;;;;;;;;11.06;100;99015.08;;;;-74
2023/03/31 16:57:08;;;;;;;;;;;;;;;11.08;100;99011.14;;;;-75
2023/03/31 17:02:09;;;;;;;;;;;;;;;11.05;100;99012.41;;;;-74
2023/03/31 17:07:08;;;;;;;;;;;;;;;11.05;100;99010.88;;;;-74
2023/03/31 17:12:08;;;;;;;;;;;;;;;11;100;99016.72;;;;-74
2023/03/31 17:17:11;;;;;;;;;;;;;;;10.95;100;99005.14;;;;-74
2023/03/31 17:18:46;;;;;;;3.4;1.5;;;;;;;;;;;;;-74
2023/03/31 17:22:09;;;;;;;;;;;;;;;10.89;99.68066;99002.25;;;;-75
2023/03/31 17:27:08;;;;;;;;;;;;;;;10.83;100;99003.78;;;;-75
2023/03/31 17:32:10;;;;;;;;;;;;;;;10.76;100;98997.3;;;;-77
2023/03/31 17:37:09;;;;;;;;;;;;;;;10.71;100;98995.94;;;;-74
2023/03/31 17:42:08;;;;;;;;;;;;;;;10.67;100;98993.88;;;;-74
2023/03/31 17:47:09;;;;;;;;;;;;;;;10.65;100;98996.17;;;;-74
2023/03/31 17:48:48;;;;;;;2.8;1.6;;;;;;;;;;;;;-74
2023/03/31 17:52:09;;;;;;;;;;;;;;;10.62;100;98997.38;;;;-74
2023/03/31 17:57:08;;;;;;;;;;;;;;;10.59;99.78711;98989.4;;;;-74
2023/03/31 18:02:09;;;;;;;;;;;;;;;10.55;100;98992.06;;;;-73
2023/03/31 18:07:09;;;;;;;;;;;;;;;10.49;100;98991.63;;;;-73
2023/03/31 18:12:09;;;;;;;;;;;;;;;10.45;100;98993.08;;;;-74
2023/03/31 18:17:13;;;;;;;;;;;;;;;10.43;100;98992.59;;;;-74
2023/03/31 18:18:49;;;;;;;4.1;2;;;;;;;;;;;;;-73
2023/03/31 18:22:08;;;;;;;;;;;;;;;10.36;100;98991.05;;;;-73
2023/03/31 18:27:09;;;;;;;;;;;;;;;10.35;100;98996.23;;;;-75
2023/03/31 18:32:09;;;;;;;;;;;;;;;10.33;100;98992.63;;;;-73
2023/03/31 18:37:08;;;;;;;;;;;;;;;10.3;100;98995.79;;;;-75
2023/03/31 18:42:09;;;;;;;;;;;;;;;10.28;100;98996.01;;;;-74
2023/03/31 18:47:08;;;;;;;;;;;;;;;10.23;100;98988.57;;;;-74
2023/03/31 18:48:51;;;;;;;2.4;1.5;;;;;;;;;;;;;-74
2023/03/31 18:52:08;;;;;;;;;;;;;;;10.22;100;98989.14;;;;-75
2023/03/31 18:57:09;;;;;;;;;;;;;;;10.19;100;98993.72;;;;-74
2023/03/31 19:02:11;;;;;;;;;;;;;;;10.18;100;98993.48;;;;-74
2023/03/31 19:07:08;;;;;;;;;;;;;;;10.14;100;98992.78;;;;-75
2023/03/31 19:12:09;;;;;;;;;;;;;;;10.12;100;98995.73;;;;-74
2023/03/31 19:17:08;;;;;;;;;;;;;;;10.12;100;98991.95;;;;-75
2023/03/31 19:18:53;;;;;;;4.5;1.9;;;;;;;;;;;;;-75
2023/03/31 19:22:09;;;;;;;;;;;;;;;10.1;100;98991.2;;;;-74
2023/03/31 19:27:08;;;;;;;;;;;;;;;10.05;100;98986.37;;;;-75
2023/03/31 19:32:09;;;;;;;;;;;;;;;10.02;100;98988.27;;;;-75
2023/03/31 19:37:08;;;;;;;;;;;;;;;10.03;100;98995.98;;;;-75
2023/03/31 19:42:08;;;;;;;;;;;;;;;10.01;100;98989.45;;;;-74
2023/03/31 19:47:10;;;;;;;;;;;;;;;10;100;98987.31;;;;-74
2023/03/31 19:48:53;;;;;;;5.5;2.1;;;;;;;;;;;;;-74
2023/03/31 19:52:08;;;;;;;;;;;;;;;10.02;100;98986.34;;;;-75
2023/03/31 19:57:08;;;;;;;;;;;;;;;9.97;100;98984.56;;;;-74
2023/03/31 20:02:12;;;;;;;;;;;;;;;9.97;100;98985.06;;;;-74
2023/03/31 20:07:08;;;;;;;;;;;;;;;9.94;100;98983.77;;;;-75
2023/03/31 20:12:08;;;;;;;;;;;;;;;9.93;100;98981.03;;;;-74
2023/03/31 20:17:09;;;;;;;;;;;;;;;9.94;100;98978.3;;;;-74
2023/03/31 20:18:58;;;;;;;5.6;2;;;;;;;;;;;;;-75
2023/03/31 20:22:08;;;;;;;;;;;;;;;9.92;100;98971.45;;;;-75
2023/03/31 20:27:08;;;;;;;;;;;;;;;9.9;100;98970.7;;;;-74
2023/03/31 20:32:08;;;;;;;;;;;;;;;9.9;100;98970.19;;;;-76
2023/03/31 20:37:08;;;;;;;;;;;;;;;9.88;100;98970.02;;;;-75
2023/03/31 20:42:09;;;;;;;;;;;;;;;9.88;100;98969.77;;;;-75
2023/03/31 20:47:08;;;;;;;;;;;;;;;9.85;100;98966.63;;;;-75
2023/03/31 20:48:56;;;;;;;3.8;1.9;;;;;;;;;;;;;-75
2023/03/31 20:52:09;;;;;;;;;;;;;;;9.84;100;98964.32;;;;-76
2023/03/31 20:57:14;;;;;;;;;;;;;;;9.83;100;98962.14;;;;-75
2023/03/31 21:02:09;;;;;;;;;;;;;;;9.82;100;98962.21;;;;-76
2023/03/31 21:07:09;;;;;;;;;;;;;;;9.8;100;98962.06;;;;-75
2023/03/31 21:12:09;;;;;;;;;;;;;;;9.8;100;98966.59;;;;-75
2023/03/31 21:17:08;;;;;;;;;;;;;;;9.8;100;98966.41;;;;-74
2023/03/31 21:18:58;;;;;;;3.9;2;;;;;;;;;;;;;-74
2023/03/31 21:22:09;;;;;;;;;;;;;;;9.79;100;98969.84;;;;-75
2023/03/31 21:27:08;;;;;;;;;;;;;;;9.79;100;98974.63;;;;-75
2023/03/31 21:32:08;;;;;;;;;;;;;;;9.79;100;98976.55;;;;-75
2023/03/31 21:37:09;;;;;;;;;;;;;;;9.78;100;98987.47;;;;-74
2023/03/31 21:42:08;;;;;;;;;;;;;;;9.77;100;98984.2;;;;-75
2023/03/31 21:47:10;;;;;;;;;;;;;;;9.77;100;98986.01;;;;-74
2023/03/31 21:48:57;;;;;;;6.7;2.8;;;;;;;;;;;;;-75
2023/03/31 21:52:10;;;;;;;;;;;;;;;9.76;100;98991;;;;-75
2023/03/31 21:57:08;;;;;;;;;;;;;;;9.76;100;98993.75;;;;-74
2023/03/31 22:02:09;;;;;;;;;;;;;;;9.73;100;98994.77;;;;-76
2023/03/31 22:07:08;;;;;;;;;;;;;;;9.71;100;98998.74;;;;-74
2023/03/31 22:12:08;;;;;;;;;;;;;;;9.69;100;99000.53;;;;-74
2023/03/31 22:17:08;;;;;;;;;;;;;;;9.68;100;99002.06;;;;-74
2023/03/31 22:18:59;;;;;;;16.9;3.4;;;;;;;;;;;;;-74
2023/03/31 22:22:08;;;;;;;;;;;;;;;9.65;100;99001.78;;;;-75
2023/03/31 22:27:11;;;;;;;;;;;;;;;9.65;100;99008.31;;;;-75
2023/03/31 22:32:08;;;;;;;;;;;;;;;9.63;100;99015.27;;;;-73
2023/03/31 22:37:08;;;;;;;;;;;;;;;9.63;100;99017.59;;;;-74
2023/03/31 22:42:09;;;;;;;;;;;;;;;9.6;100;99022;;;;-73
2023/03/31 22:47:08;;;;;;;;;;;;;;;9.61;100;99025.15;;;;-73
2023/03/31 22:48:59;;;;;;;11.3;3.6;;;;;;;;;;;;;-74
2023/03/31 22:52:11;;;;;;;;;;;;;;;9.58;100;99032.16;;;;-73
2023/03/31 22:57:08;;;;;;;;;;;;;;;9.58;100;99030.72;;;;-75
2023/03/31 23:02:08;;;;;;;;;;;;;;;9.58;100;99039.8;;;;-73
2023/03/31 23:07:08;;;;;;;;;;;;;;;9.55;100;99041.05;;;;-73
2023/03/31 23:12:08;;;;;;;;;;;;;;;9.56;100;99048.09;;;;-74
2023/03/31 23:17:08;;;;;;;;;;;;;;;9.54;100;99049.52;;;;-74
2023/03/31 23:19:07;;;;;;;11.2;3.7;;;;;;;;;;;;;-73
2023/03/31 23:22:08;;;;;;;;;;;;;;;9.53;100;99050.27;;;;-75
2023/03/31 23:27:08;;;;;;;;;;;;;;;9.51;100;99049.19;;;;-75
2023/03/31 23:32:08;;;;;;;;;;;;;;;9.49;100;99055.91;;;;-75
2023/03/31 23:37:08;;;;;;;;;;;;;;;9.48;100;99059.61;;;;-75
2023/03/31 23:42:08;;;;;;;;;;;;;;;9.48;100;99067.02;;;;-75
2023/03/31 23:47:09;;;;;;;;;;;;;;;9.46;100;99066.86;;;;-75
2023/03/31 23:49:01;;;;;;;6.3;3;;;;;;;;;;;;;-76
2023/03/31 23:52:08;;;;;;;;;;;;;;;9.45;100;99068;;;;-74
2023/03/31 23:57:08;;;;;;;;;;;;;;;9.44;100;99075.03;;;;-74
